Time;durP1;ratioP1;P1;durP2;ratioP2;P2;SDS_P1;SDS_P2;PMS_P1;PMS_P2;Temp;Humidity;BMP_temperature;BMP_pressure;BME280_temperature;BME280_humidity;BME280_pressure;Samples;Min_cycle;Max_cycle;Signal;HPM_P1;HPM_P2
2022/12/01 00:01:06;;;;;;;58.38;22.55;;;;;;;;;;5021528;28;20456;-88
2022/12/01 00:03:40;;;;;;;69.10;25.23;;;;;;;;;;5008817;28;20506;-88
2022/12/01 00:06:17;;;;;;;73.10;24.48;;;;;;;;;;4985807;28;20058;-88
2022/12/01 00:11:44;;;;;;;67.90;24.27;;;;;;;;;;5008985;28;20053;-89
2022/12/01 00:14:16;;;;;;;69.60;25.23;;;;;;;;;;5021888;28;20046;-88
2022/12/01 00:16:44;;;;;;;74.18;25.80;;;;;;;;;;5005266;28;20393;-88
2022/12/01 00:19:12;;;;;;;62.08;23.48;;;;;;;;;;5007808;28;20056;-89
2022/12/01 00:21:45;;;;;;;68.40;24.10;;;;;;;;;;4977064;28;20085;-89
2022/12/01 00:24:17;;;;;;;69.03;26.55;;;;;;;;;;4976546;28;20464;-88
2022/12/01 00:26:46;;;;;;;68.97;25.25;;;;;;;;;;5009476;28;20519;-88
2022/12/01 00:29:14;;;;;;;72.07;26.83;;;;;;;;;;4989759;28;20068;-89
2022/12/01 00:31:50;;;;;;;69.72;24.98;;;;;;;;;;5006884;28;20042;-88
2022/12/01 00:34:23;;;;;;;68.55;26.05;;;;;;;;;;4970728;28;20042;-89
2022/12/01 00:36:52;;;;;;;65.30;26.17;;;;;;;;;;4991548;28;20061;-89
2022/12/01 00:39:24;;;;;;;68.13;24.83;;;;;;;;;;5002239;28;20121;-89
2022/12/01 00:41:52;;;;;;;64.35;24.08;;;;;;;;;;5006049;28;20141;-87
2022/12/01 00:44:20;;;;;;;64.57;24.65;;;;;;;;;;5008096;28;20049;-89
2022/12/01 00:47:12;;;;;;;73.53;24.85;;;;;;;;;;4992663;28;20195;-88
2022/12/01 00:49:46;;;;;;;65.53;23.95;;;;;;;;;;5023418;28;20034;-89
2022/12/01 00:52:20;;;;;;;71.18;27.10;;;;;;;;;;4993869;28;20074;-89
2022/12/01 00:54:48;;;;;;;69.18;24.90;;;;;;;;;;4991302;28;20061;-89
2022/12/01 00:57:16;;;;;;;64.60;25.30;;;;;;;;;;4976335;28;20066;-89
2022/12/01 01:00:11;;;;;;;63.80;23.55;;;;;;;;;;4976942;28;20038;-89
2022/12/01 01:02:40;;;;;;;66.30;22.38;;;;;;;;;;4990062;28;20056;-89
2022/12/01 01:05:10;;;;;;;70.82;25.35;;;;;;;;;;5007297;28;20054;-88
2022/12/01 01:07:40;;;;;;;67.28;24.38;;;;;;;;;;5007695;28;20047;-88
2022/12/01 01:10:08;;;;;;;71.65;23.67;;;;;;;;;;5010232;28;20038;-89
2022/12/01 01:12:42;;;;;;;61.45;21.77;;;;;;;;;;5010466;28;20046;-89
2022/12/01 01:15:10;;;;;;;67.78;24.50;;;;;;;;;;5022297;28;20054;-89
2022/12/01 01:17:38;;;;;;;76.72;27.10;;;;;;;;;;4992012;28;20389;-88
2022/12/01 01:20:06;;;;;;;65.82;24.92;;;;;;;;;;4988569;28;20049;-88
2022/12/01 01:22:34;;;;;;;73.47;25.67;;;;;;;;;;5012208;28;20136;-89
2022/12/01 01:25:26;;;;;;;68.13;24.92;;;;;;;;;;5007677;28;20057;-88
2022/12/01 01:27:54;;;;;;;65.95;24.33;;;;;;;;;;4994869;28;20060;-88
2022/12/01 01:30:22;;;;;;;69.00;24.50;;;;;;;;;;5012478;28;20077;-88
2022/12/01 01:32:50;;;;;;;72.80;26.38;;;;;;;;;;4993534;28;20050;-88
2022/12/01 01:35:22;;;;;;;68.25;25.40;;;;;;;;;;5011383;28;20060;-88
2022/12/01 01:37:54;;;;;;;74.35;25.15;;;;;;;;;;5011283;28;20134;-89
2022/12/01 01:40:22;;;;;;;70.25;26.60;;;;;;;;;;5009590;28;20049;-88
2022/12/01 01:43:16;;;;;;;69.65;24.70;;;;;;;;;;5002878;28;20045;-88
2022/12/01 01:45:44;;;;;;;69.13;23.33;;;;;;;;;;5009836;28;20085;-88
2022/12/01 01:48:13;;;;;;;64.03;25.73;;;;;;;;;;4991281;28;20590;-89
2022/12/01 01:50:46;;;;;;;70.50;25.35;;;;;;;;;;4960388;28;20041;-88
2022/12/01 01:53:14;;;;;;;70.25;25.65;;;;;;;;;;5012001;28;20141;-88
2022/12/01 01:56:08;;;;;;;67.07;23.35;;;;;;;;;;5022046;28;20052;-88
2022/12/01 01:59:00;;;;;;;75.22;25.77;;;;;;;;;;4995036;28;20404;-89
2022/12/01 02:01:28;;;;;;;43.72;16.05;;;;;;;;;;5006349;28;20046;-89
2022/12/01 02:04:06;;;;;;;73.70;26.55;;;;;;;;;;4994088;28;20057;-88
2022/12/01 02:06:34;;;;;;;60.90;23.15;;;;;;;;;;4974029;28;20141;-89
2022/12/01 02:09:02;;;;;;;73.22;25.40;;;;;;;;;;5007210;28;20050;-89
2022/12/01 02:11:48;;;;;;;72.32;24.83;;;;;;;;;;5001187;28;20069;-88
2022/12/01 02:14:28;;;;;;;64.85;23.25;;;;;;;;;;5006443;28;20045;-89
2022/12/01 02:17:42;;;;;;;69.35;26.63;;;;;;;;;;5005597;28;20050;-88
2022/12/01 02:20:22;;;;;;;74.00;26.75;;;;;;;;;;4977705;28;20101;-88
2022/12/01 02:23:31;;;;;;;71.97;24.70;;;;;;;;;;4990848;28;20050;-88
2022/12/01 02:26:35;;;;;;;60.92;23.17;;;;;;;;;;4947507;28;20059;-89
2022/12/01 02:29:59;;;;;;;69.30;23.75;;;;;;;;;;4929491;29;20058;-88
2022/12/01 02:33:11;;;;;;;73.40;24.48;;;;;;;;;;4948238;29;20051;-89
2022/12/01 02:39:01;;;;;;;75.72;26.88;;;;;;;;;;4947939;28;20075;-88
2022/12/01 02:41:35;;;;;;;66.30;26.05;;;;;;;;;;4946739;28;20047;-88
2022/12/01 02:44:42;;;;;;;69.18;25.75;;;;;;;;;;4942355;29;20101;-89
2022/12/01 02:47:15;;;;;;;60.22;22.65;;;;;;;;;;4931025;29;20059;-88
2022/12/01 02:49:47;;;;;;;77.55;26.77;;;;;;;;;;4932056;29;20059;-88
2022/12/01 02:52:18;;;;;;;76.72;27.00;;;;;;;;;;4931315;28;20051;-88
2022/12/01 02:54:47;;;;;;;67.70;26.00;;;;;;;;;;4947477;29;20122;-88
2022/12/01 02:57:15;;;;;;;71.63;25.50;;;;;;;;;;4948479;28;20055;-89
2022/12/01 02:59:51;;;;;;;70.53;25.33;;;;;;;;;;4948071;28;20070;-88
2022/12/01 03:02:52;;;;;;;78.63;26.80;;;;;;;;;;4972561;28;20068;-88
2022/12/01 03:05:34;;;;;;;73.47;25.50;;;;;;;;;;5006269;28;20042;-89
2022/12/01 03:11:38;;;;;;;71.28;23.98;;;;;;;;;;4998813;28;20569;-89
2022/12/01 03:14:35;;;;;;;75.75;26.90;;;;;;;;;;5009105;28;20136;-88
2022/12/01 03:17:10;;;;;;;76.65;27.20;;;;;;;;;;4990894;28;20053;-88
2022/12/01 03:20:11;;;;;;;79.25;25.90;;;;;;;;;;5019111;28;20717;-88
2022/12/01 03:22:52;;;;;;;81.13;26.75;;;;;;;;;;5007358;28;20567;-88
2022/12/01 03:25:27;;;;;;;77.10;24.73;;;;;;;;;;4990583;28;20400;-88
2022/12/01 03:27:57;;;;;;;74.60;24.98;;;;;;;;;;4984616;28;20108;-89
2022/12/01 03:31:16;;;;;;;73.32;24.52;;;;;;;;;;5004541;28;20042;-88
2022/12/01 03:33:56;;;;;;;79.97;27.05;;;;;;;;;;4984729;28;20054;-89
2022/12/01 03:36:29;;;;;;;73.25;24.17;;;;;;;;;;4992072;28;20052;-88
2022/12/01 03:38:59;;;;;;;66.38;24.02;;;;;;;;;;5005539;28;20517;-88
2022/12/01 03:41:35;;;;;;;73.55;25.30;;;;;;;;;;4990230;28;20124;-87
2022/12/01 03:44:15;;;;;;;83.60;26.85;;;;;;;;;;4998424;28;20073;-89
2022/12/01 03:47:23;;;;;;;78.72;25.50;;;;;;;;;;4987751;28;20078;-88
2022/12/01 03:49:53;;;;;;;73.93;26.30;;;;;;;;;;4967044;28;20057;-88
2022/12/01 03:53:09;;;;;;;77.28;25.08;;;;;;;;;;5006153;28;20056;-88
2022/12/01 03:55:41;;;;;;;78.38;26.17;;;;;;;;;;5020737;28;20124;-88
2022/12/01 03:58:20;;;;;;;79.43;25.33;;;;;;;;;;4989489;28;20050;-88
2022/12/01 04:00:52;;;;;;;84.18;27.50;;;;;;;;;;5004873;28;20042;-88
2022/12/01 04:03:25;;;;;;;72.40;25.55;;;;;;;;;;5007591;28;20048;-88
2022/12/01 04:05:58;;;;;;;72.43;26.67;;;;;;;;;;4985595;28;20057;-89
2022/12/01 04:08:26;;;;;;;77.22;26.15;;;;;;;;;;4995220;28;20400;-89
2022/12/01 04:10:54;;;;;;;74.93;24.70;;;;;;;;;;4991985;28;20053;-88
2022/12/01 04:13:22;;;;;;;77.32;26.08;;;;;;;;;;5007861;28;20053;-89
2022/12/01 04:15:54;;;;;;;72.40;25.63;;;;;;;;;;4988736;28;20509;-88
2022/12/01 04:18:22;;;;;;;84.65;29.55;;;;;;;;;;5008350;28;20056;-88
2022/12/01 04:21:15;;;;;;;76.80;26.42;;;;;;;;;;4988202;28;20050;-89
2022/12/01 04:24:08;;;;;;;74.38;24.67;;;;;;;;;;5004406;28;20089;-88
2022/12/01 04:26:40;;;;;;;69.13;24.77;;;;;;;;;;4988588;28;20057;-88
2022/12/01 04:29:09;;;;;;;76.10;26.08;;;;;;;;;;5006684;28;20101;-89
2022/12/01 04:31:42;;;;;;;72.40;26.23;;;;;;;;;;4989483;28;20038;-88
2022/12/01 04:34:10;;;;;;;81.07;27.13;;;;;;;;;;4985292;28;20495;-89
2022/12/01 04:36:42;;;;;;;73.20;24.70;;;;;;;;;;5008163;28;20124;-88
2022/12/01 04:39:10;;;;;;;79.35;27.63;;;;;;;;;;5005002;28;20050;-88
2022/12/01 04:41:38;;;;;;;78.60;26.73;;;;;;;;;;4974724;28;20500;-88
2022/12/01 04:44:06;;;;;;;70.22;24.42;;;;;;;;;;5005100;28;20082;-89
2022/12/01 04:46:34;;;;;;;76.30;25.58;;;;;;;;;;4974017;28;20073;-88
2022/12/01 04:49:06;;;;;;;71.03;23.23;;;;;;;;;;4997491;28;20073;-89
2022/12/01 04:51:39;;;;;;;76.97;25.35;;;;;;;;;;5005501;28;20042;-88
2022/12/01 04:54:17;;;;;;;78.20;24.02;;;;;;;;;;5005840;28;20147;-89
2022/12/01 04:56:46;;;;;;;74.80;25.77;;;;;;;;;;4988373;28;20414;-89
2022/12/01 04:59:14;;;;;;;73.65;26.08;;;;;;;;;;5008182;28;20050;-88
2022/12/01 05:01:42;;;;;;;76.10;26.15;;;;;;;;;;5002074;28;20048;-88
2022/12/01 05:04:12;;;;;;;81.82;27.70;;;;;;;;;;4982071;28;20535;-89
2022/12/01 05:06:40;;;;;;;80.40;26.98;;;;;;;;;;4989117;28;20046;-88
2022/12/01 05:09:12;;;;;;;68.82;24.70;;;;;;;;;;4985073;28;20466;-88
2022/12/01 05:11:44;;;;;;;76.78;25.58;;;;;;;;;;5007957;28;20052;-89
2022/12/01 05:14:12;;;;;;;73.88;26.08;;;;;;;;;;4974607;28;20058;-88
2022/12/01 05:16:40;;;;;;;82.20;24.60;;;;;;;;;;4983983;28;20396;-88
2022/12/01 05:22:18;;;;;;;72.80;23.23;;;;;;;;;;5004443;28;20038;-88
2022/12/01 05:25:10;;;;;;;74.97;25.75;;;;;;;;;;5006133;28;20042;-88
2022/12/01 05:28:04;;;;;;;70.13;23.88;;;;;;;;;;4977734;28;20065;-88
2022/12/01 05:30:32;;;;;;;78.25;25.05;;;;;;;;;;5002567;28;20689;-88
2022/12/01 05:33:00;;;;;;;74.78;25.20;;;;;;;;;;4987730;28;20049;-88
2022/12/01 05:35:28;;;;;;;78.50;25.70;;;;;;;;;;5008644;28;20080;-88
2022/12/01 05:37:56;;;;;;;81.30;25.67;;;;;;;;;;5022543;28;20050;-88
2022/12/01 05:40:24;;;;;;;75.68;25.05;;;;;;;;;;5008844;28;20041;-89
2022/12/01 05:42:52;;;;;;;74.25;25.58;;;;;;;;;;4992342;28;20181;-88
2022/12/01 05:45:20;;;;;;;82.28;26.02;;;;;;;;;;5007791;28;20049;-88
2022/12/01 05:47:48;;;;;;;79.95;26.02;;;;;;;;;;4987484;28;20046;-88
2022/12/01 05:50:16;;;;;;;80.43;24.40;;;;;;;;;;5009091;28;20042;-88
2022/12/01 05:52:44;;;;;;;80.72;25.23;;;;;;;;;;5010341;28;20052;-89
2022/12/01 05:55:12;;;;;;;77.55;24.63;;;;;;;;;;5010178;28;20606;-88
2022/12/01 05:57:40;;;;;;;74.70;24.42;;;;;;;;;;5007335;28;20133;-88
2022/12/01 06:00:09;;;;;;;85.03;25.77;;;;;;;;;;5008616;28;20053;-88
2022/12/01 06:02:40;;;;;;;79.82;25.23;;;;;;;;;;4991260;28;20057;-88
2022/12/01 06:05:08;;;;;;;74.55;22.67;;;;;;;;;;5008424;28;20045;-87
2022/12/01 06:07:38;;;;;;;72.20;24.23;;;;;;;;;;5008400;28;20046;-88
2022/12/01 06:10:08;;;;;;;78.95;25.38;;;;;;;;;;5004751;28;20052;-88
2022/12/01 06:12:36;;;;;;;80.88;24.88;;;;;;;;;;5004919;28;20042;-89
2022/12/01 06:15:28;;;;;;;68.32;23.30;;;;;;;;;;4977636;28;20077;-88
2022/12/01 06:17:59;;;;;;;79.93;25.13;;;;;;;;;;4990535;28;20119;-88
2022/12/01 06:20:26;;;;;;;76.70;23.95;;;;;;;;;;4985777;28;20500;-89
2022/12/01 06:22:54;;;;;;;79.90;22.80;;;;;;;;;;5007312;28;20140;-88
2022/12/01 06:25:22;;;;;;;81.97;25.38;;;;;;;;;;4992208;28;20057;-88
2022/12/01 06:28:38;;;;;;;73.03;22.92;;;;;;;;;;5008412;28;20053;-88
2022/12/01 06:31:06;;;;;;;79.55;25.08;;;;;;;;;;5008154;28;20050;-89
2022/12/01 06:33:34;;;;;;;71.68;23.55;;;;;;;;;;4986999;28;20071;-88
2022/12/01 06:36:04;;;;;;;81.93;26.42;;;;;;;;;;5012711;28;20060;-89
2022/12/01 06:38:33;;;;;;;81.35;26.70;;;;;;;;;;5002706;28;20045;-88
2022/12/01 06:41:02;;;;;;;75.90;24.60;;;;;;;;;;5004197;28;20113;-89
2022/12/01 06:43:30;;;;;;;82.70;25.27;;;;;;;;;;5013805;28;20057;-88
2022/12/01 06:46:04;;;;;;;73.95;23.70;;;;;;;;;;5008150;28;20115;-87
2022/12/01 06:48:56;;;;;;;83.38;28.13;;;;;;;;;;5009360;28;20236;-88
2022/12/01 06:51:24;;;;;;;87.22;27.00;;;;;;;;;;4993104;28;20061;-88
2022/12/01 06:54:40;;;;;;;78.15;24.88;;;;;;;;;;5004938;28;20088;-88
2022/12/01 06:57:08;;;;;;;71.65;25.00;;;;;;;;;;4997291;28;20042;-88
2022/12/01 06:59:36;;;;;;;85.70;28.25;;;;;;;;;;5000193;28;20052;-89
2022/12/01 07:02:15;;;;;;;88.13;26.40;;;;;;;;;;4991117;28;20092;-89
2022/12/01 07:04:44;;;;;;;80.45;25.38;;;;;;;;;;5009150;28;20050;-89
2022/12/01 07:07:12;;;;;;;80.95;25.73;;;;;;;;;;4999105;28;20077;-89
2022/12/01 07:09:40;;;;;;;70.03;22.92;;;;;;;;;;4992994;28;20131;-88
2022/12/01 07:12:32;;;;;;;76.97;25.10;;;;;;;;;;5009582;28;20042;-89
2022/12/01 07:15:00;;;;;;;77.07;24.23;;;;;;;;;;4992376;28;20136;-88
2022/12/01 07:17:34;;;;;;;83.53;25.63;;;;;;;;;;5019529;28;20423;-89
2022/12/01 07:20:26;;;;;;;82.55;24.63;;;;;;;;;;4978452;28;20041;-89
2022/12/01 07:23:18;;;;;;;70.75;22.85;;;;;;;;;;5010349;28;20034;-89
2022/12/01 07:25:46;;;;;;;73.47;24.70;;;;;;;;;;5006876;28;20052;-89
2022/12/01 07:28:14;;;;;;;78.28;23.50;;;;;;;;;;4984752;28;20519;-89
2022/12/01 07:30:42;;;;;;;65.13;22.63;;;;;;;;;;4991479;28;20059;-89
2022/12/01 07:33:10;;;;;;;71.30;24.33;;;;;;;;;;4954878;28;20061;-88
2022/12/01 07:35:43;;;;;;;72.80;23.10;;;;;;;;;;5004673;28;20137;-88
2022/12/01 07:38:16;;;;;;;68.68;22.55;;;;;;;;;;5007545;28;20042;-88
2022/12/01 07:40:48;;;;;;;66.30;22.17;;;;;;;;;;4989223;28;20045;-87
2022/12/01 07:43:16;;;;;;;72.32;23.30;;;;;;;;;;4990726;28;20052;-88
2022/12/01 07:45:44;;;;;;;70.53;24.67;;;;;;;;;;5005632;28;20050;-88
2022/12/01 07:48:12;;;;;;;69.38;22.95;;;;;;;;;;5005166;28;22356;-88
2022/12/01 07:50:40;;;;;;;71.40;23.73;;;;;;;;;;5005712;28;20069;-87
2022/12/01 07:53:08;;;;;;;72.45;23.50;;;;;;;;;;4989238;28;20135;-88
2022/12/01 07:55:36;;;;;;;74.53;24.60;;;;;;;;;;4989315;28;20042;-88
2022/12/01 07:58:29;;;;;;;77.10;25.63;;;;;;;;;;5005433;28;20045;-87
2022/12/01 08:00:57;;;;;;;70.25;23.77;;;;;;;;;;4990441;28;20511;-88
2022/12/01 08:03:30;;;;;;;75.53;24.48;;;;;;;;;;5004783;28;20054;-88
2022/12/01 08:06:04;;;;;;;63.67;22.92;;;;;;;;;;5004810;28;20050;-88
2022/12/01 08:08:34;;;;;;;67.22;23.30;;;;;;;;;;5004379;28;20945;-88
2022/12/01 08:11:19;;;;;;;78.47;24.05;;;;;;;;;;4987662;28;20104;-88
2022/12/01 08:14:12;;;;;;;77.10;24.48;;;;;;;;;;5005970;28;20055;-87
2022/12/01 08:16:50;;;;;;;65.13;22.35;;;;;;;;;;5007186;28;20046;-88
2022/12/01 08:19:18;;;;;;;72.45;23.08;;;;;;;;;;5005185;28;20053;-88
2022/12/01 08:21:46;;;;;;;67.65;21.75;;;;;;;;;;5008086;28;20042;-88
2022/12/01 08:24:14;;;;;;;71.57;22.05;;;;;;;;;;5007076;28;20646;-87
2022/12/01 08:26:46;;;;;;;69.65;22.83;;;;;;;;;;4990892;28;20145;-88
2022/12/01 08:29:14;;;;;;;75.97;22.30;;;;;;;;;;4988252;28;20054;-88
2022/12/01 08:32:12;;;;;;;68.75;21.33;;;;;;;;;;5005747;28;20045;-88
2022/12/01 08:34:40;;;;;;;71.82;21.50;;;;;;;;;;5001579;28;20092;-88
2022/12/01 08:37:08;;;;;;;68.47;20.98;;;;;;;;;;4992039;28;20049;-88
2022/12/01 08:39:36;;;;;;;60.15;20.13;;;;;;;;;;5006447;28;20049;-88
2022/12/01 08:42:04;;;;;;;58.42;19.08;;;;;;;;;;4991873;28;20088;-88
2022/12/01 08:44:38;;;;;;;64.20;21.48;;;;;;;;;;5004162;28;20038;-88
2022/12/01 08:47:08;;;;;;;60.83;20.70;;;;;;;;;;4989276;28;20626;-88
2022/12/01 08:49:40;;;;;;;63.63;21.00;;;;;;;;;;4999558;28;20050;-89
2022/12/01 08:52:08;;;;;;;59.13;19.90;;;;;;;;;;4994048;28;20049;-88
2022/12/01 08:54:36;;;;;;;63.30;20.35;;;;;;;;;;5009412;28;20508;-88
2022/12/01 08:57:04;;;;;;;69.75;20.52;;;;;;;;;;5021770;28;20046;-88
2022/12/01 08:59:32;;;;;;;68.95;22.48;;;;;;;;;;4990021;28;20054;-88
2022/12/01 09:02:24;;;;;;;68.93;20.58;;;;;;;;;;5008308;28;20131;-88
2022/12/01 09:04:52;;;;;;;70.18;21.00;;;;;;;;;;4992207;28;20061;-88
2022/12/01 09:07:24;;;;;;;66.85;20.67;;;;;;;;;;5009004;28;20046;-88
2022/12/01 09:10:01;;;;;;;70.22;23.15;;;;;;;;;;4978498;28;20080;-88
2022/12/01 09:12:28;;;;;;;70.57;21.05;;;;;;;;;;5009233;28;20132;-88
2022/12/01 09:14:56;;;;;;;70.63;20.55;;;;;;;;;;4993841;28;20081;-88
2022/12/01 09:17:24;;;;;;;66.55;21.20;;;;;;;;;;5020398;28;20112;-88
2022/12/01 09:19:52;;;;;;;68.20;21.23;;;;;;;;;;4994113;28;20061;-88
2022/12/01 09:22:30;;;;;;;59.67;21.83;;;;;;;;;;4997799;28;20046;-89
2022/12/01 09:24:58;;;;;;;60.30;19.55;;;;;;;;;;4991968;28;20063;-88
2022/12/01 09:27:50;;;;;;;59.17;20.65;;;;;;;;;;5008452;28;20049;-88
2022/12/01 09:30:22;;;;;;;71.28;21.05;;;;;;;;;;5009832;28;20046;-88
2022/12/01 09:32:50;;;;;;;64.28;20.42;;;;;;;;;;5006374;28;20539;-88
2022/12/01 09:35:22;;;;;;;75.40;21.42;;;;;;;;;;5009184;28;20061;-88
2022/12/01 09:37:50;;;;;;;59.33;20.40;;;;;;;;;;5008560;28;20045;-88
2022/12/01 09:40:18;;;;;;;54.50;16.02;;;;;;;;;;5008091;28;20523;-88
2022/12/01 09:42:47;;;;;;;59.22;20.13;;;;;;;;;;5009212;28;20052;-88
2022/12/01 09:45:28;;;;;;;60.10;21.08;;;;;;;;;;4985976;28;20463;-88
2022/12/01 09:48:05;;;;;;;56.90;18.90;;;;;;;;;;5006714;28;20688;-88
2022/12/01 09:50:35;;;;;;;57.22;18.17;;;;;;;;;;5006495;28;20042;-88
2022/12/01 09:53:07;;;;;;;59.38;21.05;;;;;;;;;;5008883;28;20142;-89
2022/12/01 09:55:40;;;;;;;65.05;21.85;;;;;;;;;;4995851;28;20077;-88
2022/12/01 09:58:15;;;;;;;61.90;20.58;;;;;;;;;;4975782;28;20431;-88
2022/12/01 10:00:45;;;;;;;58.30;19.65;;;;;;;;;;5012094;28;20180;-88
2022/12/01 10:03:44;;;;;;;64.13;20.60;;;;;;;;;;5005970;28;20050;-88
2022/12/01 10:06:15;;;;;;;59.20;20.17;;;;;;;;;;5009877;28;20054;-88
2022/12/01 10:09:13;;;;;;;73.13;20.00;;;;;;;;;;4991199;28;20136;-88
2022/12/01 10:11:47;;;;;;;68.55;20.38;;;;;;;;;;5023354;28;20170;-88
2022/12/01 10:14:16;;;;;;;59.65;18.20;;;;;;;;;;5008435;28;20140;-88
2022/12/01 10:17:19;;;;;;;64.72;19.27;;;;;;;;;;5006911;28;20504;-88
2022/12/01 10:20:29;;;;;;;46.05;16.52;;;;;;;;;;5002056;28;20145;-88
2022/12/01 10:23:21;;;;;;;46.88;16.60;;;;;;;;;;4990374;28;20046;-88
2022/12/01 10:25:58;;;;;;;47.53;16.23;;;;;;;;;;5007069;28;20148;-88
2022/12/01 10:28:59;;;;;;;40.90;13.57;;;;;;;;;;4991527;28;20192;-89
2022/12/01 10:31:41;;;;;;;47.92;13.88;;;;;;;;;;5005154;28;20054;-88
2022/12/01 10:34:39;;;;;;;40.13;13.38;;;;;;;;;;5009167;28;20048;-88
2022/12/01 10:37:17;;;;;;;42.15;14.00;;;;;;;;;;4992250;28;20041;-88
2022/12/01 10:40:15;;;;;;;36.90;12.00;;;;;;;;;;4992339;28;20045;-88
2022/12/01 10:42:49;;;;;;;38.42;12.18;;;;;;;;;;4988137;28;20048;-88
2022/12/01 10:45:25;;;;;;;42.40;12.63;;;;;;;;;;5009518;28;20050;-88
2022/12/01 10:51:16;;;;;;;36.10;13.07;;;;;;;;;;5006904;28;20049;-88
2022/12/01 10:54:06;;;;;;;39.03;12.65;;;;;;;;;;4976733;28;20085;-88
2022/12/01 10:56:39;;;;;;;41.05;13.23;;;;;;;;;;4989851;28;20503;-88
2022/12/01 10:59:38;;;;;;;48.45;13.35;;;;;;;;;;5008676;28;20057;-88
2022/12/01 11:02:19;;;;;;;46.67;14.25;;;;;;;;;;5006939;28;20116;-87
2022/12/01 11:05:23;;;;;;;40.92;13.55;;;;;;;;;;4983182;28;20050;-88
2022/12/01 11:08:21;;;;;;;43.75;12.60;;;;;;;;;;4985216;28;20062;-89
2022/12/01 11:10:51;;;;;;;57.40;15.85;;;;;;;;;;4967566;28;20077;-89
2022/12/01 11:13:29;;;;;;;47.00;13.45;;;;;;;;;;4969276;28;20054;-88
2022/12/01 11:16:00;;;;;;;52.10;15.77;;;;;;;;;;4981613;28;20432;-88
2022/12/01 11:18:35;;;;;;;42.42;13.15;;;;;;;;;;4984533;28;20086;-88
2022/12/01 11:21:28;;;;;;;46.75;14.52;;;;;;;;;;4970586;28;20058;-89
2022/12/01 11:24:41;;;;;;;53.78;14.38;;;;;;;;;;4987112;28;20165;-88
2022/12/01 11:27:38;;;;;;;42.20;13.13;;;;;;;;;;4987159;28;20086;-89
2022/12/01 11:30:19;;;;;;;53.08;14.68;;;;;;;;;;4977099;28;20047;-88
2022/12/01 11:32:55;;;;;;;47.50;14.57;;;;;;;;;;4979313;28;20046;-88
2022/12/01 11:35:34;;;;;;;55.50;15.90;;;;;;;;;;4967896;28;20078;-88
2022/12/01 11:38:05;;;;;;;52.25;14.95;;;;;;;;;;4985804;28;20059;-89
2022/12/01 11:40:56;;;;;;;45.03;13.90;;;;;;;;;;4985296;28;20069;-88
2022/12/01 11:43:31;;;;;;;48.42;14.38;;;;;;;;;;4953416;28;20559;-88
2022/12/01 11:46:07;;;;;;;42.55;13.10;;;;;;;;;;4974761;28;20046;-89
2022/12/01 11:48:35;;;;;;;40.80;14.10;;;;;;;;;;4991231;28;20058;-89
2022/12/01 11:54:26;;;;;;;41.42;11.45;;;;;;;;;;5009056;28;20034;-88
2022/12/01 11:57:46;;;;;;;42.45;12.80;;;;;;;;;;5006603;28;20038;-88
2022/12/01 12:00:44;;;;;;;46.78;12.52;;;;;;;;;;5006945;28;20157;-88
2022/12/01 12:03:49;;;;;;;38.53;11.77;;;;;;;;;;5004375;28;20026;-88
2022/12/01 12:06:28;;;;;;;34.13;10.52;;;;;;;;;;5009389;28;20050;-88
2022/12/01 12:09:29;;;;;;;41.95;11.55;;;;;;;;;;5007785;28;20057;-89
2022/12/01 12:12:53;;;;;;;38.92;11.57;;;;;;;;;;5008882;28;20057;-89
2022/12/01 12:15:35;;;;;;;39.60;12.55;;;;;;;;;;4909520;29;20056;-89
2022/12/01 12:18:50;;;;;;;38.75;11.20;;;;;;;;;;4923905;29;20067;-89
2022/12/01 12:21:58;;;;;;;35.88;11.68;;;;;;;;;;4912012;29;20048;-88
2022/12/01 12:24:31;;;;;;;34.90;11.25;;;;;;;;;;4914831;29;20048;-88
2022/12/01 12:27:29;;;;;;;35.90;10.80;;;;;;;;;;4925582;29;20196;-88
2022/12/01 12:30:16;;;;;;;43.03;10.48;;;;;;;;;;4925015;29;20067;-88
2022/12/01 12:33:13;;;;;;;39.08;12.00;;;;;;;;;;4925839;29;20843;-88
2022/12/01 12:36:07;;;;;;;44.47;13.55;;;;;;;;;;4928357;29;20143;-88
2022/12/01 12:39:09;;;;;;;46.60;12.25;;;;;;;;;;4910987;29;20056;-88
2022/12/01 12:42:33;;;;;;;35.25;10.02;;;;;;;;;;4919911;29;20143;-88
2022/12/01 12:45:25;;;;;;;40.13;10.40;;;;;;;;;;4931560;29;20501;-88
2022/12/01 12:48:16;;;;;;;33.53;10.35;;;;;;;;;;4899945;29;20387;-88
2022/12/01 12:51:31;;;;;;;39.70;11.90;;;;;;;;;;5012128;28;20128;-88
2022/12/01 12:54:45;;;;;;;;;;;;;;;;;;4999141;28;20037;-89
2022/12/01 12:57:36;;;;;;;37.88;8.90;;;;;;;;;;5015350;28;19925;-88
2022/12/01 13:00:28;;;;;;;36.45;9.93;;;;;;;;;;5008539;28;20057;-88
2022/12/01 13:03:31;;;;;;;36.92;10.02;;;;;;;;;;5009893;28;20042;-88
2022/12/01 13:06:12;;;;;;;41.60;10.48;;;;;;;;;;4984745;28;20058;-88
2022/12/01 13:08:49;;;;;;;40.45;9.98;;;;;;;;;;5011500;28;20057;-88
2022/12/01 13:11:49;;;;;;;38.00;9.82;;;;;;;;;;4998304;28;20053;-88
2022/12/01 13:14:28;;;;;;;42.58;10.13;;;;;;;;;;5023527;28;20062;-88
2022/12/01 13:17:26;;;;;;;32.88;9.35;;;;;;;;;;5008056;28;20049;-88
2022/12/01 13:19:54;;;;;;;33.00;9.00;;;;;;;;;;5007246;28;20050;-88
2022/12/01 13:22:28;;;;;;;34.97;8.55;;;;;;;;;;4977134;28;20042;-88
2022/12/01 13:24:56;;;;;;;43.83;11.00;;;;;;;;;;4990876;28;20049;-88
2022/12/01 13:27:27;;;;;;;41.50;10.25;;;;;;;;;;5009197;28;20062;-88
2022/12/01 13:29:55;;;;;;;46.45;10.40;;;;;;;;;;5009906;28;20054;-88
2022/12/01 13:32:48;;;;;;;44.65;10.82;;;;;;;;;;4997409;28;20180;-88
2022/12/01 13:35:28;;;;;;;33.03;9.95;;;;;;;;;;5011225;28;20160;-88
2022/12/01 13:38:25;;;;;;;38.75;10.30;;;;;;;;;;5010031;28;20046;-87
2022/12/01 13:41:21;;;;;;;38.40;9.07;;;;;;;;;;4993956;28;20526;-88
2022/12/01 13:43:53;;;;;;;44.35;9.50;;;;;;;;;;5026051;28;20096;-87
2022/12/01 13:46:46;;;;;;;35.58;9.15;;;;;;;;;;5010516;28;20125;-88
2022/12/01 13:49:44;;;;;;;32.33;9.25;;;;;;;;;;4979019;28;20063;-87
2022/12/01 13:52:16;;;;;;;34.42;9.63;;;;;;;;;;5011166;28;20518;-88
2022/12/01 13:55:08;;;;;;;31.45;9.70;;;;;;;;;;5027415;28;20046;-88
2022/12/01 13:57:37;;;;;;;31.27;8.52;;;;;;;;;;4994442;28;20488;-88
2022/12/01 14:00:25;;;;;;;38.17;9.68;;;;;;;;;;4993856;28;20102;-88
2022/12/01 14:03:12;;;;;;;38.03;9.95;;;;;;;;;;4995477;28;20049;-88
2022/12/01 14:05:52;;;;;;;36.70;9.68;;;;;;;;;;5010506;28;20136;-87
2022/12/01 14:08:27;;;;;;;28.63;7.90;;;;;;;;;;4995266;28;20539;-87
2022/12/01 14:11:02;;;;;;;26.13;8.98;;;;;;;;;;4991492;28;20054;-87
2022/12/01 14:13:59;;;;;;;31.25;8.30;;;;;;;;;;4995193;28;20046;-88
2022/12/01 14:16:52;;;;;;;28.52;9.32;;;;;;;;;;4990997;28;20061;-87
2022/12/01 14:19:45;;;;;;;34.40;9.20;;;;;;;;;;4994233;28;20053;-87
2022/12/01 14:22:39;;;;;;;34.60;10.23;;;;;;;;;;5004607;28;20050;-87
2022/12/01 14:25:24;;;;;;;36.72;9.07;;;;;;;;;;5002328;28;20049;-88
2022/12/01 14:28:01;;;;;;;32.63;9.57;;;;;;;;;;5006509;28;20054;-87
2022/12/01 14:30:44;;;;;;;33.58;9.05;;;;;;;;;;5010502;28;20046;-87
2022/12/01 14:33:50;;;;;;;35.17;10.23;;;;;;;;;;5009270;28;20147;-89
2022/12/01 14:36:52;;;;;;;24.70;8.27;;;;;;;;;;4995779;28;20034;-87
2022/12/01 14:39:29;;;;;;;32.42;8.13;;;;;;;;;;4992552;28;20140;-88
2022/12/01 14:44:02;;;;;;;27.08;8.05;;;;;;;;;;4994983;28;20056;-87
2022/12/01 14:45:38;;;;;;;31.52;9.10;;;;;;;;;;5022766;28;20049;-88
2022/12/01 14:48:13;;;;;;;31.63;8.52;;;;;;;;;;5008809;28;20073;-88
2022/12/01 14:50:59;;;;;;;35.45;9.25;;;;;;;;;;4993432;28;20096;-88
2022/12/01 14:53:35;;;;;;;37.42;9.32;;;;;;;;;;4992276;28;20499;-88
2022/12/01 14:56:12;;;;;;;33.25;9.77;;;;;;;;;;5007768;28;20053;-88
2022/12/01 14:58:51;;;;;;;36.20;9.60;;;;;;;;;;5009691;28;20137;-88
2022/12/01 15:01:21;;;;;;;27.83;9.13;;;;;;;;;;4989588;28;20057;-87
2022/12/01 15:03:57;;;;;;;31.45;9.43;;;;;;;;;;5004030;28;20177;-89
2022/12/01 15:06:29;;;;;;;29.77;8.45;;;;;;;;;;4976488;28;20393;-87
2022/12/01 15:09:16;;;;;;;30.80;9.20;;;;;;;;;;4999022;28;20093;-88
2022/12/01 15:12:30;;;;;;;26.77;8.68;;;;;;;;;;5003559;28;20050;-87
2022/12/01 15:15:14;;;;;;;32.78;9.82;;;;;;;;;;5006495;28;20405;-88
2022/12/01 15:17:44;;;;;;;26.52;9.27;;;;;;;;;;5006905;28;20056;-87
2022/12/01 15:20:34;;;;;;;24.17;8.52;;;;;;;;;;5023911;28;20042;-87
2022/12/01 15:23:11;;;;;;;25.80;8.70;;;;;;;;;;4991543;28;20535;-88
2022/12/01 15:25:45;;;;;;;28.05;9.55;;;;;;;;;;4987923;28;20145;-88
2022/12/01 15:28:17;;;;;;;26.58;8.35;;;;;;;;;;4994027;28;20054;-88
2022/12/01 15:30:52;;;;;;;28.35;8.77;;;;;;;;;;5009780;28;20064;-89
2022/12/01 15:33:24;;;;;;;33.13;10.85;;;;;;;;;;5009835;28;20519;-88
2022/12/01 15:35:57;;;;;;;23.77;8.20;;;;;;;;;;4990749;28;20050;-87
2022/12/01 15:38:30;;;;;;;24.25;8.35;;;;;;;;;;5007282;28;20038;-87
2022/12/01 15:41:00;;;;;;;26.38;8.68;;;;;;;;;;4990213;28;20145;-88
2022/12/01 15:44:00;;;;;;;27.20;8.13;;;;;;;;;;4970909;28;20053;-87
2022/12/01 15:46:30;;;;;;;28.92;8.55;;;;;;;;;;5008564;28;20050;-87